sensor_id;sensor_type;location;lat;lon;timestamp;pressure;altitude;pressure_sealevel;temperature;humidity
4576;BME280;2300;51.874;8.430;2023-07-08T00:00:13;100999.69;;;17.11;79.08
4576;BME280;2300;51.874;8.430;2023-07-08T00:02:40;100996.38;;;17.09;79.59
4576;BME280;2300;51.874;8.430;2023-07-08T00:05:08;100993.56;;;17.04;79.99
4576;BME280;2300;51.874;8.430;2023-07-08T00:07:35;100992.94;;;17.02;80.19
4576;BME280;2300;51.874;8.430;2023-07-08T00:10:01;100994.59;;;16.98;80.63
4576;BME280;2300;51.874;8.430;2023-07-08T00:12:28;100991.50;;;16.95;80.41
4576;BME280;2300;51.874;8.430;2023-07-08T00:14:56;100997.59;;;16.92;80.57
4576;BME280;2300;51.874;8.430;2023-07-08T00:17:22;100995.06;;;16.90;80.20
4576;BME280;2300;51.874;8.430;2023-07-08T00:19:49;100998.66;;;16.86;80.87
4576;BME280;2300;51.874;8.430;2023-07-08T00:22:16;100987.28;;;16.82;81.34
4576;BME280;2300;51.874;8.430;2023-07-08T00:24:42;100991.69;;;16.78;81.20
4576;BME280;2300;51.874;8.430;2023-07-08T00:27:11;100981.06;;;16.70;81.46
4576;BME280;2300;51.874;8.430;2023-07-08T00:29:38;100982.75;;;16.71;81.70
4576;BME280;2300;51.874;8.430;2023-07-08T00:32:12;100976.31;;;16.65;81.94
4576;BME280;2300;51.874;8.430;2023-07-08T00:34:39;100977.72;;;16.63;81.99
4576;BME280;2300;51.874;8.430;2023-07-08T00:37:09;100968.81;;;16.61;82.30
4576;BME280;2300;51.874;8.430;2023-07-08T00:39:36;100964.03;;;16.51;82.29
4576;BME280;2300;51.874;8.430;2023-07-08T00:42:12;100965.91;;;16.46;82.69
4576;BME280;2300;51.874;8.430;2023-07-08T00:44:41;100970.31;;;16.42;82.79
4576;BME280;2300;51.874;8.430;2023-07-08T00:47:09;100967.56;;;16.42;82.57
4576;BME280;2300;51.874;8.430;2023-07-08T00:49:40;100979.75;;;16.41;82.42
4576;BME280;2300;51.874;8.430;2023-07-08T00:52:16;100973.91;;;16.37;82.43
4576;BME280;2300;51.874;8.430;2023-07-08T00:54:43;100979.69;;;16.36;82.48
4576;BME280;2300;51.874;8.430;2023-07-08T00:57:09;100971.09;;;16.32;82.78
4576;BME280;2300;51.874;8.430;2023-07-08T00:59:38;100974.63;;;16.27;83.47
4576;BME280;2300;51.874;8.430;2023-07-08T01:02:09;100971.34;;;16.30;82.71
4576;BME280;2300;51.874;8.430;2023-07-08T01:04:43;100965.75;;;16.25;83.34
4576;BME280;2300;51.874;8.430;2023-07-08T01:07:14;100967.09;;;16.23;83.12
4576;BME280;2300;51.874;8.430;2023-07-08T01:09:50;100962.69;;;16.22;82.75
4576;BME280;2300;51.874;8.430;2023-07-08T01:12:20;100952.91;;;16.14;83.55
4576;BME280;2300;51.874;8.430;2023-07-08T01:14:49;100955.94;;;16.13;83.42
4576;BME280;2300;51.874;8.430;2023-07-08T01:17:18;100952.25;;;16.07;83.42
4576;BME280;2300;51.874;8.430;2023-07-08T01:19:46;100953.88;;;16.03;84.35
4576;BME280;2300;51.874;8.430;2023-07-08T01:22:14;100946.59;;;15.97;84.96
4576;BME280;2300;51.874;8.430;2023-07-08T01:24:43;100951.31;;;15.97;84.98
4576;BME280;2300;51.874;8.430;2023-07-08T01:27:13;100954.66;;;15.99;84.63
4576;BME280;2300;51.874;8.430;2023-07-08T01:29:41;100951.25;;;15.91;84.91
4576;BME280;2300;51.874;8.430;2023-07-08T01:32:10;100944.81;;;15.86;85.72
4576;BME280;2300;51.874;8.430;2023-07-08T01:34:44;100950.66;;;15.84;85.62
4576;BME280;2300;51.874;8.430;2023-07-08T01:37:28;100952.56;;;15.84;85.76
4576;BME280;2300;51.874;8.430;2023-07-08T01:39:55;100949.75;;;15.79;86.61
4576;BME280;2300;51.874;8.430;2023-07-08T01:42:22;100948.72;;;15.85;85.60
4576;BME280;2300;51.874;8.430;2023-07-08T01:44:49;100948.66;;;15.80;86.67
4576;BME280;2300;51.874;8.430;2023-07-08T01:47:19;100944.22;;;15.79;86.69
4576;BME280;2300;51.874;8.430;2023-07-08T01:49:47;100941.44;;;15.79;86.82
4576;BME280;2300;51.874;8.430;2023-07-08T01:52:15;100935.84;;;15.74;87.13
4576;BME280;2300;51.874;8.430;2023-07-08T01:54:44;100934.47;;;15.76;86.79
4576;BME280;2300;51.874;8.430;2023-07-08T01:57:11;100933.66;;;15.76;86.72
4576;BME280;2300;51.874;8.430;2023-07-08T01:59:37;100939.47;;;15.74;86.31
4576;BME280;2300;51.874;8.430;2023-07-08T02:02:03;100924.97;;;15.67;86.73
4576;BME280;2300;51.874;8.430;2023-07-08T02:04:30;100906.28;;;15.53;87.17
4576;BME280;2300;51.874;8.430;2023-07-08T02:07:00;100928.00;;;15.66;87.47
4576;BME280;2300;51.874;8.430;2023-07-08T02:09:26;100923.59;;;15.65;87.40
4576;BME280;2300;51.874;8.430;2023-07-08T02:11:55;100920.22;;;15.63;87.57
4576;BME280;2300;51.874;8.430;2023-07-08T02:14:21;100910.78;;;15.59;87.20
4576;BME280;2300;51.874;8.430;2023-07-08T02:16:48;100911.13;;;15.67;86.68
4576;BME280;2300;51.874;8.430;2023-07-08T02:19:15;100911.41;;;15.66;86.62
4576;BME280;2300;51.874;8.430;2023-07-08T02:21:41;100917.22;;;15.64;86.40
4576;BME280;2300;51.874;8.430;2023-07-08T02:24:08;100909.75;;;15.65;86.03
4576;BME280;2300;51.874;8.430;2023-07-08T02:26:34;100911.97;;;15.68;84.59
4576;BME280;2300;51.874;8.430;2023-07-08T02:29:02;100916.19;;;15.75;83.92
4576;BME280;2300;51.874;8.430;2023-07-08T02:31:29;100923.75;;;15.80;83.16
4576;BME280;2300;51.874;8.430;2023-07-08T02:33:55;100920.38;;;15.78;82.86
4576;BME280;2300;51.874;8.430;2023-07-08T02:36:22;100914.81;;;15.73;82.73
4576;BME280;2300;51.874;8.430;2023-07-08T02:38:48;100918.16;;;15.75;83.16
4576;BME280;2300;51.874;8.430;2023-07-08T02:41:15;100913.72;;;15.74;83.21
4576;BME280;2300;51.874;8.430;2023-07-08T02:43:42;100907.59;;;15.72;82.89
4576;BME280;2300;51.874;8.430;2023-07-08T02:46:10;100908.97;;;15.69;82.76
4576;BME280;2300;51.874;8.430;2023-07-08T02:48:36;100908.69;;;15.71;81.71
4576;BME280;2300;51.874;8.430;2023-07-08T02:51:04;100911.00;;;15.79;80.99
4576;BME280;2300;51.874;8.430;2023-07-08T02:53:31;100912.13;;;15.83;81.12
4576;BME280;2300;51.874;8.430;2023-07-08T02:55:58;100915.53;;;15.90;79.97
4576;BME280;2300;51.874;8.430;2023-07-08T02:58:24;100907.84;;;15.97;79.61
4576;BME280;2300;51.874;8.430;2023-07-08T03:00:51;100906.00;;;16.08;79.28
4576;BME280;2300;51.874;8.430;2023-07-08T03:03:19;100914.66;;;16.11;78.81
4576;BME280;2300;51.874;8.430;2023-07-08T03:05:54;100902.78;;;16.16;78.32
4576;BME280;2300;51.874;8.430;2023-07-08T03:08:20;100909.72;;;16.18;78.05
4576;BME280;2300;51.874;8.430;2023-07-08T03:10:47;100907.53;;;16.20;77.50
4576;BME280;2300;51.874;8.430;2023-07-08T03:13:13;100911.44;;;16.24;77.26
4576;BME280;2300;51.874;8.430;2023-07-08T03:15:40;100913.63;;;16.22;77.26
4576;BME280;2300;51.874;8.430;2023-07-08T03:18:10;100912.00;;;16.26;76.44
4576;BME280;2300;51.874;8.430;2023-07-08T03:20:40;100910.63;;;16.29;76.59
4576;BME280;2300;51.874;8.430;2023-07-08T03:23:09;100914.28;;;16.34;76.50
4576;BME280;2300;51.874;8.430;2023-07-08T03:25:36;100906.56;;;16.37;76.32
4576;BME280;2300;51.874;8.430;2023-07-08T03:28:03;100906.56;;;16.37;76.04
4576;BME280;2300;51.874;8.430;2023-07-08T03:30:31;100917.94;;;16.40;75.50
4576;BME280;2300;51.874;8.430;2023-07-08T03:32:58;100911.09;;;16.53;75.33
4576;BME280;2300;51.874;8.430;2023-07-08T03:35:24;100909.75;;;16.60;74.86
4576;BME280;2300;51.874;8.430;2023-07-08T03:37:52;100905.38;;;16.69;74.27
4576;BME280;2300;51.874;8.430;2023-07-08T03:40:19;100911.75;;;16.70;74.21
4576;BME280;2300;51.874;8.430;2023-07-08T03:42:45;100906.75;;;16.67;74.76
4576;BME280;2300;51.874;8.430;2023-07-08T03:45:12;100903.94;;;16.62;74.98
4576;BME280;2300;51.874;8.430;2023-07-08T03:47:38;100915.94;;;16.72;74.75
4576;BME280;2300;51.874;8.430;2023-07-08T03:50:06;100910.69;;;16.76;74.25
4576;BME280;2300;51.874;8.430;2023-07-08T03:52:32;100909.59;;;16.77;73.92
4576;BME280;2300;51.874;8.430;2023-07-08T03:55:00;100914.56;;;16.75;73.98
4576;BME280;2300;51.874;8.430;2023-07-08T03:57:26;100914.09;;;16.88;73.58
4576;BME280;2300;51.874;8.430;2023-07-08T03:59:53;100916.91;;;16.93;73.29
4576;BME280;2300;51.874;8.430;2023-07-08T04:02:19;100920.78;;;16.97;73.21
4576;BME280;2300;51.874;8.430;2023-07-08T04:04:46;100915.81;;;16.99;73.08
4576;BME280;2300;51.874;8.430;2023-07-08T04:07:12;100915.88;;;17.04;72.69
4576;BME280;2300;51.874;8.430;2023-07-08T04:09:39;100915.28;;;17.02;73.38
4576;BME280;2300;51.874;8.430;2023-07-08T04:12:10;100916.44;;;17.06;73.20
4576;BME280;2300;51.874;8.430;2023-07-08T04:14:36;100912.56;;;17.07;73.16
4576;BME280;2300;51.874;8.430;2023-07-08T04:17:08;100914.81;;;17.15;73.08
4576;BME280;2300;51.874;8.430;2023-07-08T04:19:34;100921.78;;;17.23;72.81
4576;BME280;2300;51.874;8.430;2023-07-08T04:22:02;100922.63;;;17.24;74.09
4576;BME280;2300;51.874;8.430;2023-07-08T04:24:28;100929.84;;;17.25;74.42
4576;BME280;2300;51.874;8.430;2023-07-08T04:26:55;100921.00;;;17.38;73.57
4576;BME280;2300;51.874;8.430;2023-07-08T04:29:23;100932.69;;;17.40;73.38
4576;BME280;2300;51.874;8.430;2023-07-08T04:31:50;100928.53;;;17.52;72.65
4576;BME280;2300;51.874;8.430;2023-07-08T04:34:17;100911.88;;;17.52;71.83
4576;BME280;2300;51.874;8.430;2023-07-08T04:36:43;100943.91;;;17.80;72.16
4576;BME280;2300;51.874;8.430;2023-07-08T04:39:10;100943.41;;;17.98;70.94
4576;BME280;2300;51.874;8.430;2023-07-08T04:41:37;100939.00;;;18.18;69.46
4576;BME280;2300;51.874;8.430;2023-07-08T04:44:06;100934.81;;;18.45;68.28
4576;BME280;2300;51.874;8.430;2023-07-08T04:46:35;100948.97;;;18.84;68.20
4576;BME280;2300;51.874;8.430;2023-07-08T04:49:04;100940.53;;;19.20;68.33
4576;BME280;2300;51.874;8.430;2023-07-08T04:51:31;100941.78;;;19.58;67.99
4576;BME280;2300;51.874;8.430;2023-07-08T04:53:58;100938.44;;;20.05;67.41
4576;BME280;2300;51.874;8.430;2023-07-08T04:56:26;100937.84;;;20.42;66.87
4576;BME280;2300;51.874;8.430;2023-07-08T04:59:00;100941.78;;;20.75;66.82
4576;BME280;2300;51.874;8.430;2023-07-08T05:01:27;100942.97;;;21.21;66.55
4576;BME280;2300;51.874;8.430;2023-07-08T05:03:55;100939.50;;;21.53;66.36
4576;BME280;2300;51.874;8.430;2023-07-08T05:06:21;100931.13;;;21.72;63.38
4576;BME280;2300;51.874;8.430;2023-07-08T05:08:48;100944.50;;;21.94;63.60
4576;BME280;2300;51.874;8.430;2023-07-08T05:11:14;100941.34;;;22.19;64.08
4576;BME280;2300;51.874;8.430;2023-07-08T05:13:41;100948.56;;;22.39;62.72
4576;BME280;2300;51.874;8.430;2023-07-08T05:16:07;100948.75;;;22.61;63.09
4576;BME280;2300;51.874;8.430;2023-07-08T05:18:34;100938.69;;;22.79;62.14
4576;BME280;2300;51.874;8.430;2023-07-08T05:21:02;100938.25;;;22.85;59.08
4576;BME280;2300;51.874;8.430;2023-07-08T05:23:29;100937.06;;;23.05;58.81
4576;BME280;2300;51.874;8.430;2023-07-08T05:25:59;100928.34;;;23.20;59.53
4576;BME280;2300;51.874;8.430;2023-07-08T05:28:25;100934.34;;;23.68;58.08
4576;BME280;2300;51.874;8.430;2023-07-08T05:30:52;100940.31;;;24.92;58.04
4576;BME280;2300;51.874;8.430;2023-07-08T05:33:20;100935.66;;;26.78;54.60
4576;BME280;2300;51.874;8.430;2023-07-08T05:35:46;100934.69;;;28.09;48.77
4576;BME280;2300;51.874;8.430;2023-07-08T05:38:14;100933.81;;;28.95;48.17
4576;BME280;2300;51.874;8.430;2023-07-08T05:40:41;100946.94;;;29.96;48.20
4576;BME280;2300;51.874;8.430;2023-07-08T05:43:07;100945.25;;;30.47;45.72
4576;BME280;2300;51.874;8.430;2023-07-08T05:45:34;100933.47;;;30.89;45.34
4576;BME280;2300;51.874;8.430;2023-07-08T05:48:00;100939.94;;;31.17;44.71
4576;BME280;2300;51.874;8.430;2023-07-08T05:50:27;100928.09;;;31.62;43.89
4576;BME280;2300;51.874;8.430;2023-07-08T05:52:54;100934.56;;;30.69;44.70
4576;BME280;2300;51.874;8.430;2023-07-08T05:55:21;100927.91;;;30.21;45.83
4576;BME280;2300;51.874;8.430;2023-07-08T05:57:48;100932.00;;;30.64;45.42
4576;BME280;2300;51.874;8.430;2023-07-08T06:00:14;100924.00;;;31.13;46.11
4576;BME280;2300;51.874;8.430;2023-07-08T06:02:41;100921.03;;;31.72;45.33
4576;BME280;2300;51.874;8.430;2023-07-08T06:05:08;100915.75;;;32.25;44.22
4576;BME280;2300;51.874;8.430;2023-07-08T06:07:34;100914.69;;;32.13;42.87
4576;BME280;2300;51.874;8.430;2023-07-08T06:10:01;100918.38;;;32.94;42.47
4576;BME280;2300;51.874;8.430;2023-07-08T06:12:29;100909.94;;;33.21;43.42
4576;BME280;2300;51.874;8.430;2023-07-08T06:14:56;100923.00;;;33.74;41.29
4576;BME280;2300;51.874;8.430;2023-07-08T06:17:22;100912.00;;;33.24;41.98
4576;BME280;2300;51.874;8.430;2023-07-08T06:19:49;100906.63;;;32.15;42.86
4576;BME280;2300;51.874;8.430;2023-07-08T06:22:16;100905.97;;;32.22;43.47
4576;BME280;2300;51.874;8.430;2023-07-08T06:24:42;100905.03;;;31.64;43.14
4576;BME280;2300;51.874;8.430;2023-07-08T06:27:09;100905.56;;;31.85;44.45
4576;BME280;2300;51.874;8.430;2023-07-08T06:29:37;100906.03;;;32.06;43.12
4576;BME280;2300;51.874;8.430;2023-07-08T06:32:05;100914.94;;;32.43;42.63
4576;BME280;2300;51.874;8.430;2023-07-08T06:34:31;100910.06;;;32.63;42.31
4576;BME280;2300;51.874;8.430;2023-07-08T06:36:58;100909.59;;;32.61;43.22
4576;BME280;2300;51.874;8.430;2023-07-08T06:39:24;100904.84;;;32.27;43.45
4576;BME280;2300;51.874;8.430;2023-07-08T06:41:51;100902.06;;;32.30;42.99
4576;BME280;2300;51.874;8.430;2023-07-08T06:44:18;100900.53;;;32.33;42.88
4576;BME280;2300;51.874;8.430;2023-07-08T06:46:46;100908.78;;;32.60;44.14
4576;BME280;2300;51.874;8.430;2023-07-08T06:49:12;100904.50;;;32.70;43.46
4576;BME280;2300;51.874;8.430;2023-07-08T06:51:39;100909.94;;;33.21;43.95
4576;BME280;2300;51.874;8.430;2023-07-08T06:54:05;100905.13;;;32.79;42.64
4576;BME280;2300;51.874;8.430;2023-07-08T06:56:37;100906.47;;;32.47;43.76
4576;BME280;2300;51.874;8.430;2023-07-08T06:59:03;100911.03;;;31.27;45.08
4576;BME280;2300;51.874;8.430;2023-07-08T07:01:30;100898.50;;;31.44;44.09
4576;BME280;2300;51.874;8.430;2023-07-08T07:03:57;100899.00;;;31.65;44.73
4576;BME280;2300;51.874;8.430;2023-07-08T07:06:24;100904.31;;;31.51;43.65
4576;BME280;2300;51.874;8.430;2023-07-08T07:08:51;100903.06;;;31.02;45.95
4576;BME280;2300;51.874;8.430;2023-07-08T07:11:17;100908.66;;;31.45;45.58
4576;BME280;2300;51.874;8.430;2023-07-08T07:13:45;100901.88;;;31.03;46.18
4576;BME280;2300;51.874;8.430;2023-07-08T07:16:11;100899.84;;;30.72;46.91
4576;BME280;2300;51.874;8.430;2023-07-08T07:18:38;100899.66;;;30.52;46.97
4576;BME280;2300;51.874;8.430;2023-07-08T07:21:05;100900.97;;;30.27;47.23
4576;BME280;2300;51.874;8.430;2023-07-08T07:23:32;100909.03;;;30.25;48.88
4576;BME280;2300;51.874;8.430;2023-07-08T07:25:58;100908.81;;;30.18;45.68
4576;BME280;2300;51.874;8.430;2023-07-08T07:28:25;100910.69;;;29.38;47.35
4576;BME280;2300;51.874;8.430;2023-07-08T07:30:56;100897.72;;;29.61;47.67
4576;BME280;2300;51.874;8.430;2023-07-08T07:33:23;100917.38;;;29.33;48.20
4576;BME280;2300;51.874;8.430;2023-07-08T07:35:49;100910.34;;;29.63;46.81
4576;BME280;2300;51.874;8.430;2023-07-08T07:38:17;100909.03;;;29.61;46.97
4576;BME280;2300;51.874;8.430;2023-07-08T07:40:44;100908.56;;;29.47;48.15
4576;BME280;2300;51.874;8.430;2023-07-08T07:43:11;100909.88;;;29.61;48.79
4576;BME280;2300;51.874;8.430;2023-07-08T07:45:37;100907.22;;;29.93;49.58
4576;BME280;2300;51.874;8.430;2023-07-08T07:48:09;100903.13;;;29.78;45.67
4576;BME280;2300;51.874;8.430;2023-07-08T07:50:45;100910.81;;;29.41;48.46
4576;BME280;2300;51.874;8.430;2023-07-08T07:53:12;100898.66;;;29.41;48.50
4576;BME280;2300;51.874;8.430;2023-07-08T07:55:40;100904.34;;;30.05;49.75
4576;BME280;2300;51.874;8.430;2023-07-08T07:58:06;100904.38;;;30.33;48.36
4576;BME280;2300;51.874;8.430;2023-07-08T08:00:33;100900.94;;;30.67;46.26
4576;BME280;2300;51.874;8.430;2023-07-08T08:02:59;100905.59;;;30.47;46.81
4576;BME280;2300;51.874;8.430;2023-07-08T08:05:26;100903.97;;;30.46;45.77
4576;BME280;2300;51.874;8.430;2023-07-08T08:07:52;100906.91;;;30.50;45.93
4576;BME280;2300;51.874;8.430;2023-07-08T08:10:19;100912.63;;;30.66;47.38
4576;BME280;2300;51.874;8.430;2023-07-08T08:12:46;100906.22;;;30.69;45.92
4576;BME280;2300;51.874;8.430;2023-07-08T08:15:15;100913.34;;;30.63;46.65
4576;BME280;2300;51.874;8.430;2023-07-08T08:17:42;100907.53;;;30.87;47.69
4576;BME280;2300;51.874;8.430;2023-07-08T08:20:12;100915.78;;;31.08;44.21
4576;BME280;2300;51.874;8.430;2023-07-08T08:22:38;100918.81;;;31.15;45.32
4576;BME280;2300;51.874;8.430;2023-07-08T08:25:05;100908.75;;;31.33;43.78
4576;BME280;2300;51.874;8.430;2023-07-08T08:27:33;100914.13;;;30.91;43.14
4576;BME280;2300;51.874;8.430;2023-07-08T08:30:01;100914.94;;;30.76;43.54
4576;BME280;2300;51.874;8.430;2023-07-08T08:32:27;100922.81;;;30.98;43.29
4576;BME280;2300;51.874;8.430;2023-07-08T08:34:54;100913.09;;;30.99;44.07
4576;BME280;2300;51.874;8.430;2023-07-08T08:37:20;100923.03;;;31.21;45.90
4576;BME280;2300;51.874;8.430;2023-07-08T08:39:46;100917.41;;;30.93;44.64
4576;BME280;2300;51.874;8.430;2023-07-08T08:42:18;100928.97;;;31.16;44.00
4576;BME280;2300;51.874;8.430;2023-07-08T08:44:46;100935.09;;;31.49;46.26
4576;BME280;2300;51.874;8.430;2023-07-08T08:47:21;100932.88;;;31.93;44.15
4576;BME280;2300;51.874;8.430;2023-07-08T08:49:57;100927.19;;;31.11;42.78
4576;BME280;2300;51.874;8.430;2023-07-08T08:52:27;100930.81;;;31.24;45.65
4576;BME280;2300;51.874;8.430;2023-07-08T08:54:54;100921.16;;;30.53;45.71
4576;BME280;2300;51.874;8.430;2023-07-08T08:57:32;100926.53;;;30.15;44.50
4576;BME280;2300;51.874;8.430;2023-07-08T09:00:04;100927.53;;;30.78;46.03
4576;BME280;2300;51.874;8.430;2023-07-08T09:02:34;100923.72;;;31.02;45.53
4576;BME280;2300;51.874;8.430;2023-07-08T09:05:05;100927.09;;;30.92;44.82
4576;BME280;2300;51.874;8.430;2023-07-08T09:07:41;100921.34;;;31.04;42.62
4576;BME280;2300;51.874;8.430;2023-07-08T09:10:25;100910.47;;;30.90;45.15
4576;BME280;2300;51.874;8.430;2023-07-08T09:12:57;100916.69;;;30.96;44.04
4576;BME280;2300;51.874;8.430;2023-07-08T09:15:26;100915.81;;;31.23;45.18
4576;BME280;2300;51.874;8.430;2023-07-08T09:17:58;100925.09;;;31.71;45.16
4576;BME280;2300;51.874;8.430;2023-07-08T09:20:29;100913.59;;;31.83;45.47
4576;BME280;2300;51.874;8.430;2023-07-08T09:23:00;100901.16;;;31.37;43.70
4576;BME280;2300;51.874;8.430;2023-07-08T09:25:33;100904.84;;;31.57;45.38
4576;BME280;2300;51.874;8.430;2023-07-08T09:28:02;100915.41;;;31.91;44.07
4576;BME280;2300;51.874;8.430;2023-07-08T09:30:28;100911.56;;;32.18;43.49
4576;BME280;2300;51.874;8.430;2023-07-08T09:32:57;100907.63;;;31.88;41.87
4576;BME280;2300;51.874;8.430;2023-07-08T09:35:25;100901.50;;;31.35;43.42
4576;BME280;2300;51.874;8.430;2023-07-08T09:37:53;100907.06;;;31.48;44.94
4576;BME280;2300;51.874;8.430;2023-07-08T09:40:22;100904.66;;;32.00;46.52
4576;BME280;2300;51.874;8.430;2023-07-08T09:42:52;100902.50;;;31.94;44.66
4576;BME280;2300;51.874;8.430;2023-07-08T09:45:21;100902.72;;;31.85;43.12
4576;BME280;2300;51.874;8.430;2023-07-08T09:47:52;100906.78;;;32.42;43.37
4576;BME280;2300;51.874;8.430;2023-07-08T09:50:23;100909.69;;;32.45;43.77
4576;BME280;2300;51.874;8.430;2023-07-08T09:52:52;100909.19;;;32.20;44.60
4576;BME280;2300;51.874;8.430;2023-07-08T09:55:20;100902.84;;;32.27;43.25
4576;BME280;2300;51.874;8.430;2023-07-08T09:57:48;100902.91;;;32.31;43.19
4576;BME280;2300;51.874;8.430;2023-07-08T10:00:18;100903.94;;;32.42;40.64
4576;BME280;2300;51.874;8.430;2023-07-08T10:02:46;100902.19;;;31.64;44.14
4576;BME280;2300;51.874;8.430;2023-07-08T10:05:19;100906.19;;;31.78;43.98
4576;BME280;2300;51.874;8.430;2023-07-08T10:07:48;100904.97;;;32.14;42.60
4576;BME280;2300;51.874;8.430;2023-07-08T10:10:18;100903.06;;;31.84;41.11
4576;BME280;2300;51.874;8.430;2023-07-08T10:12:55;100900.25;;;32.03;42.95
4576;BME280;2300;51.874;8.430;2023-07-08T10:15:29;100916.34;;;32.34;41.91
4576;BME280;2300;51.874;8.430;2023-07-08T10:17:57;100913.94;;;32.55;41.67
4576;BME280;2300;51.874;8.430;2023-07-08T10:20:35;100915.25;;;32.38;41.94
4576;BME280;2300;51.874;8.430;2023-07-08T10:23:15;100913.50;;;32.53;42.10
4576;BME280;2300;51.874;8.430;2023-07-08T10:25:49;100907.97;;;32.41;41.72
4576;BME280;2300;51.874;8.430;2023-07-08T10:28:27;100908.97;;;32.90;44.61
4576;BME280;2300;51.874;8.430;2023-07-08T10:31:06;100906.63;;;32.73;40.29
4576;BME280;2300;51.874;8.430;2023-07-08T10:33:46;100897.22;;;32.69;42.62
4576;BME280;2300;51.874;8.430;2023-07-08T10:36:25;100902.59;;;32.36;41.27
4576;BME280;2300;51.874;8.430;2023-07-08T10:39:15;100906.47;;;32.47;43.80
4576;BME280;2300;51.874;8.430;2023-07-08T10:41:56;100896.56;;;32.37;42.72
4576;BME280;2300;51.874;8.430;2023-07-08T10:44:33;100899.75;;;32.36;43.93
4576;BME280;2300;51.874;8.430;2023-07-08T10:47:10;100903.50;;;32.40;43.27
4576;BME280;2300;51.874;8.430;2023-07-08T10:49:53;100893.78;;;32.02;41.64
4576;BME280;2300;51.874;8.430;2023-07-08T10:52:43;100903.72;;;31.77;43.78
4576;BME280;2300;51.874;8.430;2023-07-08T10:55:28;100898.09;;;32.15;42.42
4576;BME280;2300;51.874;8.430;2023-07-08T10:58:13;100901.41;;;32.37;42.59
4576;BME280;2300;51.874;8.430;2023-07-08T11:00:51;100897.78;;;32.59;41.83
4576;BME280;2300;51.874;8.430;2023-07-08T11:06:24;100889.94;;;32.52;42.46
4576;BME280;2300;51.874;8.430;2023-07-08T11:08:55;100889.31;;;32.82;42.72
4576;BME280;2300;51.874;8.430;2023-07-08T11:11:32;100884.63;;;32.93;41.58
4576;BME280;2300;51.874;8.430;2023-07-08T11:14:08;100882.16;;;32.91;41.37
4576;BME280;2300;51.874;8.430;2023-07-08T11:16:41;100882.28;;;32.76;42.49
4576;BME280;2300;51.874;8.430;2023-07-08T11:19:13;100872.44;;;32.92;42.12
4576;BME280;2300;51.874;8.430;2023-07-08T11:21:45;100872.38;;;32.89;42.56
4576;BME280;2300;51.874;8.430;2023-07-08T11:24:18;100866.00;;;32.95;41.18
4576;BME280;2300;51.874;8.430;2023-07-08T11:26:52;100878.94;;;32.70;40.65
4576;BME280;2300;51.874;8.430;2023-07-08T11:29:22;100868.72;;;32.88;41.41
4576;BME280;2300;51.874;8.430;2023-07-08T11:31:52;100871.50;;;33.30;41.72
4576;BME280;2300;51.874;8.430;2023-07-08T11:34:20;100872.31;;;33.31;41.65
4576;BME280;2300;51.874;8.430;2023-07-08T11:36:49;100868.44;;;32.97;40.83
4576;BME280;2300;51.874;8.430;2023-07-08T11:39:28;100869.78;;;33.26;40.19
4576;BME280;2300;51.874;8.430;2023-07-08T11:42:17;100865.38;;;33.05;40.90
4576;BME280;2300;51.874;8.430;2023-07-08T11:44:48;100861.75;;;33.31;41.21
4576;BME280;2300;51.874;8.430;2023-07-08T11:47:19;100857.22;;;33.27;41.09
4576;BME280;2300;51.874;8.430;2023-07-08T11:49:48;100860.94;;;33.57;41.63
4576;BME280;2300;51.874;8.430;2023-07-08T11:52:18;100854.50;;;33.64;41.63
4576;BME280;2300;51.874;8.430;2023-07-08T11:54:46;100854.44;;;33.86;39.92
4576;BME280;2300;51.874;8.430;2023-07-08T11:57:23;100854.41;;;33.83;41.43
4576;BME280;2300;51.874;8.430;2023-07-08T12:00:10;100848.56;;;33.72;40.50
4576;BME280;2300;51.874;8.430;2023-07-08T12:02:48;100847.22;;;33.66;40.19
4576;BME280;2300;51.874;8.430;2023-07-08T12:05:16;100844.28;;;33.33;39.23
4576;BME280;2300;51.874;8.430;2023-07-08T12:07:45;100849.44;;;33.76;42.20
4576;BME280;2300;51.874;8.430;2023-07-08T12:10:16;100837.19;;;33.72;38.79
4576;BME280;2300;51.874;8.430;2023-07-08T12:12:45;100844.13;;;33.48;41.71
4576;BME280;2300;51.874;8.430;2023-07-08T12:15:16;100839.16;;;33.42;40.29
4576;BME280;2300;51.874;8.430;2023-07-08T12:17:44;100838.88;;;33.77;39.31
4576;BME280;2300;51.874;8.430;2023-07-08T12:20:17;100837.00;;;33.62;40.41
4576;BME280;2300;51.874;8.430;2023-07-08T12:22:44;100837.31;;;33.27;39.60
4576;BME280;2300;51.874;8.430;2023-07-08T12:25:13;100842.63;;;33.58;39.87
4576;BME280;2300;51.874;8.430;2023-07-08T12:27:41;100831.34;;;33.65;38.30
4576;BME280;2300;51.874;8.430;2023-07-08T12:30:10;100835.84;;;33.66;41.09
4576;BME280;2300;51.874;8.430;2023-07-08T12:32:37;100834.81;;;33.78;41.90
4576;BME280;2300;51.874;8.430;2023-07-08T12:35:04;100829.34;;;33.96;41.96
4576;BME280;2300;51.874;8.430;2023-07-08T12:37:37;100831.28;;;34.18;39.12
4576;BME280;2300;51.874;8.430;2023-07-08T12:40:10;100814.75;;;34.01;38.79
4576;BME280;2300;51.874;8.430;2023-07-08T12:42:37;100822.88;;;33.69;37.02
4576;BME280;2300;51.874;8.430;2023-07-08T12:45:14;100819.16;;;34.24;39.01
4576;BME280;2300;51.874;8.430;2023-07-08T12:47:43;100810.25;;;34.00;39.09
4576;BME280;2300;51.874;8.430;2023-07-08T12:50:10;100813.25;;;33.77;38.34
4576;BME280;2300;51.874;8.430;2023-07-08T12:52:38;100813.06;;;33.66;39.64
4576;BME280;2300;51.874;8.430;2023-07-08T12:55:05;100816.09;;;33.77;39.87
4576;BME280;2300;51.874;8.430;2023-07-08T12:57:34;100817.41;;;33.83;39.15
4576;BME280;2300;51.874;8.430;2023-07-08T13:00:01;100819.50;;;33.89;38.16
4576;BME280;2300;51.874;8.430;2023-07-08T13:02:31;100815.06;;;33.62;37.92
4576;BME280;2300;51.874;8.430;2023-07-08T13:05:00;100827.16;;;33.56;37.38
4576;BME280;2300;51.874;8.430;2023-07-08T13:07:34;100829.19;;;33.55;37.89
4576;BME280;2300;51.874;8.430;2023-07-08T13:10:03;100824.59;;;33.47;37.54
4576;BME280;2300;51.874;8.430;2023-07-08T13:12:31;100821.13;;;33.91;37.14
4576;BME280;2300;51.874;8.430;2023-07-08T13:15:00;100824.69;;;34.14;39.81
4576;BME280;2300;51.874;8.430;2023-07-08T13:17:28;100828.28;;;34.11;37.19
4576;BME280;2300;51.874;8.430;2023-07-08T13:19:56;100812.34;;;34.03;36.37
4576;BME280;2300;51.874;8.430;2023-07-08T13:22:24;100807.06;;;33.71;36.51